Makinen, MN

1:01 AM CDT on July 10, 2014 (GMT -0500)
Leisure Lake,Mn (KMNMAKIN4) Elev 1427 ft | 47.33 °N, 92.34 °W | Change Station
Active Advisory: Areal Flood Warning

Current weather conditions updated 15 minutes ago

Overcast
Overcast
54.0 °F
Feels Like 54.0 °F
N
0.0
Wind Variable Wind from South

Today is forecast to be Warmer than yesterday. A few showers developing late tonight.

Today
High -- | Low -- °F
--% Chance of Precip.
Yesterday
High -- | Low -- °F
Precip. -- in
5:23 AM 9:05 PM
Waxing Gibbous, 93% visible
Pressure 30.04 in
Visibility 10.0 miles
Clouds Overcast 6000 ft
Dew Point 51 °F
Humidity 90%
Rainfall 0.00 in
Snow Depth Not available.
UV 0 out of 12
Pollen 3.30 out of 12
Air Quality Not available.
Flu Activity Sporadic
METAR KHIB 100553Z AUTO 00000KT 10SM OVC060 12/11 A3003 RMK AO2 SLP171 T01220106 10228 20111 402330056 52006

More Conditions Fewer Conditions

Pressure 30.04 in
Visibility 10.0 miles
Clouds Overcast 6000 ft
Dew Point 51 °F
Humidity 90%
Rainfall 0.00 in
Snow Depth Not available.
UV 0 out of 12
Pollen 3.30 out of 12
Air Quality Not available.
Flu Activity Sporadic
METAR KHIB 100553Z AUTO 00000KT 10SM OVC060 12/11 A3003 RMK AO2 SLP171 T01220106 10228 20111 402330056 52006

More Conditions Fewer Conditions

10-Day Weather Forecast

Almanac

Astronomy

Jul. 10, 2014 Rise Set
Actual Time 5:23 AM CDT 9:05 PM CDT
Civil Twilight 4:44 AM CDT 9:44 PM CDT
Nautical Twilight 3:51 AM CDT 10:36 PM CDT
Astronomical Twilight 2:36 AM CDT 11:50 PM CDT
Moon 7:14 PM CDT 3:39 AM CDT
Length of Visible Light 17h 00m
Length of Day
15h 41m
Tomorrow will be 1m 31s shorter.
Waxing Gibbous, 93% of the Moon is Illuminated
Today
Waxing Gibbous
Jul 12
Full
Jul 18
Last Quarter
Jul 26
New
Aug 3
First Quarter

Today's Extremes

State Highs State Lows

Community

WunderPhotos

Upload Photos

1,732,075 photos uploaded!

Nearby

Snow Depth

Station Depth Elevation
No new snow has been reported.

Earthquake Activity

City Distance Mag. Time & Date
No recent earthquake activity has been reported nearby.
Minimum magnitude displayed is 2.5.

Coastal Water Temperatures

Place Temperature
No Stations Reporting

Nearby Weather Stations

Station Location Temp. Dew Point Humidity Wind Precip. Elev Updated Type
Leisure Lake,Mn, Makinen, MN 54.0 °F 51 °F 90% South  at  0.0 mph - / hr 1427 ft 12:46 AM CDT Normal

Show More Stations Show Fewer Stations